sensor_id;sensor_type;location;lat;lon;timestamp;P1;durP1;ratioP1;P2;durP2;ratioP2
17261;SDS011;9873;52.236;21.002;2023-05-02T00:09:17;9.67;;;5.70;;
17261;SDS011;9873;52.236;21.002;2023-05-02T00:19:20;8.45;;;5.20;;
17261;SDS011;9873;52.236;21.002;2023-05-02T00:29:28;9.43;;;5.88;;
17261;SDS011;9873;52.236;21.002;2023-05-02T00:39:35;6.75;;;4.63;;
17261;SDS011;9873;52.236;21.002;2023-05-02T00:49:38;7.63;;;4.78;;
17261;SDS011;9873;52.236;21.002;2023-05-02T00:59:45;7.95;;;4.20;;
17261;SDS011;9873;52.236;21.002;2023-05-02T01:09:56;8.50;;;4.20;;
17261;SDS011;9873;52.236;21.002;2023-05-02T01:20:06;8.90;;;4.63;;
17261;SDS011;9873;52.236;21.002;2023-05-02T01:30:16;7.83;;;4.43;;
17261;SDS011;9873;52.236;21.002;2023-05-02T01:40:20;7.50;;;4.65;;
17261;SDS011;9873;52.236;21.002;2023-05-02T01:50:28;11.53;;;4.73;;
17261;SDS011;9873;52.236;21.002;2023-05-02T02:00:34;9.75;;;4.80;;
17261;SDS011;9873;52.236;21.002;2023-05-02T02:10:42;8.90;;;4.17;;
17261;SDS011;9873;52.236;21.002;2023-05-02T02:20:49;8.43;;;4.38;;
17261;SDS011;9873;52.236;21.002;2023-05-02T02:30:58;10.13;;;5.27;;
17261;SDS011;9873;52.236;21.002;2023-05-02T02:41:05;10.50;;;4.95;;
17261;SDS011;9873;52.236;21.002;2023-05-02T03:01:45;8.00;;;4.07;;
17261;SDS011;9873;52.236;21.002;2023-05-02T03:11:52;9.13;;;4.50;;
17261;SDS011;9873;52.236;21.002;2023-05-02T03:21:57;6.23;;;4.57;;
17261;SDS011;9873;52.236;21.002;2023-05-02T03:32:02;7.93;;;4.40;;
17261;SDS011;9873;52.236;21.002;2023-05-02T03:42:09;8.90;;;4.37;;
17261;SDS011;9873;52.236;21.002;2023-05-02T03:52:17;11.63;;;5.30;;
17261;SDS011;9873;52.236;21.002;2023-05-02T04:02:21;8.93;;;4.50;;
17261;SDS011;9873;52.236;21.002;2023-05-02T04:12:24;8.67;;;4.70;;
17261;SDS011;9873;52.236;21.002;2023-05-02T04:22:28;8.60;;;4.37;;
17261;SDS011;9873;52.236;21.002;2023-05-02T04:32:36;7.90;;;4.93;;
17261;SDS011;9873;52.236;21.002;2023-05-02T04:42:42;7.27;;;4.60;;
17261;SDS011;9873;52.236;21.002;2023-05-02T04:52:48;6.70;;;3.63;;
17261;SDS011;9873;52.236;21.002;2023-05-02T05:02:50;7.85;;;4.70;;
17261;SDS011;9873;52.236;21.002;2023-05-02T05:12:55;9.57;;;4.25;;
17261;SDS011;9873;52.236;21.002;2023-05-02T05:23:02;11.60;;;4.30;;
17261;SDS011;9873;52.236;21.002;2023-05-02T05:33:07;8.52;;;4.18;;
17261;SDS011;9873;52.236;21.002;2023-05-02T05:43:14;7.97;;;4.57;;
17261;SDS011;9873;52.236;21.002;2023-05-02T05:53:16;7.32;;;4.78;;
17261;SDS011;9873;52.236;21.002;2023-05-02T06:03:21;7.22;;;4.65;;
17261;SDS011;9873;52.236;21.002;2023-05-02T06:13:24;7.20;;;4.47;;
17261;SDS011;9873;52.236;21.002;2023-05-02T06:23:27;6.40;;;4.20;;
17261;SDS011;9873;52.236;21.002;2023-05-02T06:33:32;6.13;;;3.75;;
17261;SDS011;9873;52.236;21.002;2023-05-02T06:43:37;7.20;;;3.80;;
17261;SDS011;9873;52.236;21.002;2023-05-02T06:53:41;5.13;;;3.63;;
17261;SDS011;9873;52.236;21.002;2023-05-02T07:03:54;6.88;;;3.75;;
17261;SDS011;9873;52.236;21.002;2023-05-02T07:13:58;6.28;;;3.40;;
17261;SDS011;9873;52.236;21.002;2023-05-02T07:24:01;9.45;;;3.13;;
17261;SDS011;9873;52.236;21.002;2023-05-02T07:34:08;3.55;;;2.60;;
17261;SDS011;9873;52.236;21.002;2023-05-02T07:44:10;4.68;;;2.63;;
17261;SDS011;9873;52.236;21.002;2023-05-02T07:54:19;4.82;;;2.33;;
17261;SDS011;9873;52.236;21.002;2023-05-02T08:04:30;4.38;;;2.33;;
17261;SDS011;9873;52.236;21.002;2023-05-02T08:14:32;5.55;;;2.70;;
17261;SDS011;9873;52.236;21.002;2023-05-02T08:24:37;5.72;;;2.60;;
17261;SDS011;9873;52.236;21.002;2023-05-02T08:34:42;3.53;;;2.47;;
17261;SDS011;9873;52.236;21.002;2023-05-02T08:44:49;6.20;;;3.10;;
17261;SDS011;9873;52.236;21.002;2023-05-02T08:54:52;6.65;;;3.53;;
17261;SDS011;9873;52.236;21.002;2023-05-02T09:04:58;5.97;;;3.67;;
17261;SDS011;9873;52.236;21.002;2023-05-02T09:25:21;6.90;;;4.28;;
17261;SDS011;9873;52.236;21.002;2023-05-02T09:35:26;4.72;;;3.60;;
17261;SDS011;9873;52.236;21.002;2023-05-02T09:45:33;6.53;;;4.20;;
17261;SDS011;9873;52.236;21.002;2023-05-02T09:55:42;10.05;;;3.78;;
17261;SDS011;9873;52.236;21.002;2023-05-02T10:05:45;10.25;;;7.20;;
17261;SDS011;9873;52.236;21.002;2023-05-02T10:15:49;10.00;;;6.75;;
17261;SDS011;9873;52.236;21.002;2023-05-02T10:25:59;8.10;;;5.32;;
17261;SDS011;9873;52.236;21.002;2023-05-02T10:36:01;6.93;;;5.75;;
17261;SDS011;9873;52.236;21.002;2023-05-02T10:56:35;22.95;;;16.73;;
17261;SDS011;9873;52.236;21.002;2023-05-02T11:17:10;8.57;;;6.00;;
17261;SDS011;9873;52.236;21.002;2023-05-02T11:37:30;16.33;;;10.32;;
17261;SDS011;9873;52.236;21.002;2023-05-02T11:47:35;17.65;;;10.80;;
17261;SDS011;9873;52.236;21.002;2023-05-02T11:57:37;13.32;;;9.25;;
17261;SDS011;9873;52.236;21.002;2023-05-02T12:07:45;14.02;;;9.02;;
17261;SDS011;9873;52.236;21.002;2023-05-02T12:17:52;15.68;;;10.60;;
17261;SDS011;9873;52.236;21.002;2023-05-02T12:27:58;16.35;;;10.10;;
17261;SDS011;9873;52.236;21.002;2023-05-02T12:38:22;14.18;;;9.18;;
17261;SDS011;9873;52.236;21.002;2023-05-02T12:48:26;10.88;;;7.40;;
17261;SDS011;9873;52.236;21.002;2023-05-02T12:58:28;10.10;;;6.55;;
17261;SDS011;9873;52.236;21.002;2023-05-02T13:08:42;8.93;;;4.95;;
17261;SDS011;9873;52.236;21.002;2023-05-02T13:18:48;6.88;;;4.57;;
17261;SDS011;9873;52.236;21.002;2023-05-02T13:28:51;8.95;;;5.22;;
17261;SDS011;9873;52.236;21.002;2023-05-02T13:38:55;7.72;;;4.80;;
17261;SDS011;9873;52.236;21.002;2023-05-02T13:49:01;8.30;;;4.30;;
17261;SDS011;9873;52.236;21.002;2023-05-02T13:59:07;5.65;;;3.70;;
17261;SDS011;9873;52.236;21.002;2023-05-02T14:09:11;4.95;;;4.18;;
17261;SDS011;9873;52.236;21.002;2023-05-02T14:19:16;5.45;;;4.10;;
17261;SDS011;9873;52.236;21.002;2023-05-02T14:29:23;7.30;;;4.45;;
17261;SDS011;9873;52.236;21.002;2023-05-02T14:39:27;6.18;;;4.03;;
17261;SDS011;9873;52.236;21.002;2023-05-02T14:49:29;7.22;;;4.22;;
17261;SDS011;9873;52.236;21.002;2023-05-02T14:59:36;5.53;;;3.88;;
17261;SDS011;9873;52.236;21.002;2023-05-02T15:09:42;5.60;;;4.40;;
17261;SDS011;9873;52.236;21.002;2023-05-02T15:19:44;7.90;;;4.38;;
17261;SDS011;9873;52.236;21.002;2023-05-02T15:29:49;7.15;;;4.32;;
17261;SDS011;9873;52.236;21.002;2023-05-02T15:39:52;9.20;;;4.68;;
17261;SDS011;9873;52.236;21.002;2023-05-02T15:49:58;7.45;;;4.90;;
17261;SDS011;9873;52.236;21.002;2023-05-02T16:00:01;6.50;;;4.47;;
17261;SDS011;9873;52.236;21.002;2023-05-02T16:10:07;8.38;;;4.93;;
17261;SDS011;9873;52.236;21.002;2023-05-02T16:20:12;9.90;;;5.10;;
17261;SDS011;9873;52.236;21.002;2023-05-02T16:30:16;7.38;;;4.68;;
17261;SDS011;9873;52.236;21.002;2023-05-02T16:40:23;7.40;;;4.72;;
17261;SDS011;9873;52.236;21.002;2023-05-02T16:50:31;8.73;;;4.90;;
17261;SDS011;9873;52.236;21.002;2023-05-02T17:00:38;6.95;;;4.70;;
17261;SDS011;9873;52.236;21.002;2023-05-02T17:10:46;5.90;;;5.10;;
17261;SDS011;9873;52.236;21.002;2023-05-02T17:20:54;8.32;;;5.47;;
17261;SDS011;9873;52.236;21.002;2023-05-02T17:31:01;7.38;;;5.05;;
17261;SDS011;9873;52.236;21.002;2023-05-02T17:41:08;7.22;;;4.57;;
17261;SDS011;9873;52.236;21.002;2023-05-02T17:51:10;9.02;;;5.07;;
17261;SDS011;9873;52.236;21.002;2023-05-02T18:01:16;8.65;;;5.15;;
17261;SDS011;9873;52.236;21.002;2023-05-02T18:11:20;6.45;;;4.88;;
17261;SDS011;9873;52.236;21.002;2023-05-02T18:21:24;7.28;;;4.72;;
17261;SDS011;9873;52.236;21.002;2023-05-02T18:31:28;5.07;;;4.50;;
17261;SDS011;9873;52.236;21.002;2023-05-02T18:41:34;8.50;;;5.43;;
17261;SDS011;9873;52.236;21.002;2023-05-02T18:51:40;8.52;;;5.30;;
17261;SDS011;9873;52.236;21.002;2023-05-02T19:01:49;7.65;;;5.32;;
17261;SDS011;9873;52.236;21.002;2023-05-02T19:11:56;9.02;;;5.20;;
17261;SDS011;9873;52.236;21.002;2023-05-02T19:21:58;7.60;;;6.15;;
17261;SDS011;9873;52.236;21.002;2023-05-02T19:32:02;8.55;;;5.28;;
17261;SDS011;9873;52.236;21.002;2023-05-02T19:42:09;8.75;;;5.40;;
17261;SDS011;9873;52.236;21.002;2023-05-02T19:52:15;9.20;;;5.75;;
17261;SDS011;9873;52.236;21.002;2023-05-02T20:02:20;8.70;;;5.75;;
17261;SDS011;9873;52.236;21.002;2023-05-02T20:12:25;7.95;;;5.20;;
17261;SDS011;9873;52.236;21.002;2023-05-02T20:22:29;9.20;;;6.25;;
17261;SDS011;9873;52.236;21.002;2023-05-02T20:32:37;10.35;;;5.15;;
17261;SDS011;9873;52.236;21.002;2023-05-02T20:42:46;7.55;;;5.78;;
17261;SDS011;9873;52.236;21.002;2023-05-02T20:52:52;6.20;;;4.68;;
17261;SDS011;9873;52.236;21.002;2023-05-02T21:02:57;7.05;;;5.15;;
17261;SDS011;9873;52.236;21.002;2023-05-02T21:13:02;7.78;;;4.70;;
17261;SDS011;9873;52.236;21.002;2023-05-02T21:23:07;6.72;;;4.95;;
17261;SDS011;9873;52.236;21.002;2023-05-02T21:33:12;5.28;;;4.38;;
17261;SDS011;9873;52.236;21.002;2023-05-02T21:43:18;8.38;;;4.50;;
17261;SDS011;9873;52.236;21.002;2023-05-02T21:53:22;6.88;;;4.63;;
17261;SDS011;9873;52.236;21.002;2023-05-02T22:03:30;7.03;;;5.47;;
17261;SDS011;9873;52.236;21.002;2023-05-02T22:13:36;7.95;;;4.40;;
17261;SDS011;9873;52.236;21.002;2023-05-02T22:23:41;7.10;;;4.53;;
17261;SDS011;9873;52.236;21.002;2023-05-02T22:33:44;5.53;;;3.15;;
17261;SDS011;9873;52.236;21.002;2023-05-02T22:43:50;5.88;;;3.20;;
17261;SDS011;9873;52.236;21.002;2023-05-02T22:53:57;4.37;;;3.00;;
17261;SDS011;9873;52.236;21.002;2023-05-02T23:04:02;3.53;;;2.33;;
17261;SDS011;9873;52.236;21.002;2023-05-02T23:14:05;3.70;;;2.50;;
17261;SDS011;9873;52.236;21.002;2023-05-02T23:24:08;3.77;;;2.30;;
17261;SDS011;9873;52.236;21.002;2023-05-02T23:34:11;6.13;;;2.60;;
17261;SDS011;9873;52.236;21.002;2023-05-02T23:44:15;3.78;;;2.00;;
17261;SDS011;9873;52.236;21.002;2023-05-02T23:54:18;3.75;;;2.58;;
